Time Latitude Longitude Accuracy (66% radius in meters) Altitude (meters) Speed (km/hour) Bearing (degrees) Battery (%) GPS flag
08:49:25 51.898977 107.658111 2 664.5 1.7999999523163 143.35510253906 68 1 delete
08:49:23 51.899001 107.658072 1.5 665.20001220703 2.210000038147 150.10070800781 68 1 delete
08:49:20 51.899070 107.658028 1.5 665.79998779297 2.1900000572205 147.19482421875 68 1 delete
08:49:16 51.899151 107.657944 1.5 665.5 2.1699998378754 144.74487304688 68 1 delete
08:49:13 51.899223 107.657888 1.5 664.90002441406 2.0899999141693 146.61804199219 68 1 delete
08:49:12 51.899247 107.657866 1.5 664.79998779297 1.9900000095367 146.689453125 68 1 delete
08:49:07 51.899341 107.657768 1.5 664.79998779297 1.9199999570847 152.73193359375 68 1 delete
08:49:03 51.899441 107.657725 1.5 665.70001220703 2.5499999523163 174.79797363281 68 1 delete
08:49:02 51.899467 107.657729 2 665.59997558594 2.6099998950958 177.31384277344 68 1 delete
08:48:59 51.899552 107.657716 2 666.70001220703 2.2699999809265 169.07409667969 68 1 delete
08:48:55 51.899658 107.657685 2 667.70001220703 2.1699998378754 168.64013671875 68 1 delete
08:48:52 51.899744 107.657685 2 668.40002441406 2.5599999427795 175.98449707031 68 1 delete
08:48:51 51.899774 107.657683 2 668.40002441406 2.460000038147 176.73706054688 68 1 delete
08:48:47 51.899892 107.657660 2 669.40002441406 2.6699998378754 179.24194335938 68 1 delete
08:48:43 51.900004 107.657663 2 669.40002441406 2.3599998950958 178.16528320312 68 1 delete
08:48:41 51.900058 107.657653 2 669.79998779297 2.3899998664856 178.13232421875 68 1 delete
08:48:39 51.900115 107.657647 2 669.90002441406 2.460000038147 177.72583007812 68 1 delete
08:48:35 51.900234 107.657643 2 670.20001220703 2.9900000095367 175.83618164062 68 1 delete
08:48:31 51.900358 107.657618 2 671.90002441406 2.1800000667572 170.859375 68 1 delete
08:48:27 51.900457 107.657598 2 671.59997558594 2.2000000476837 177.84118652344 68 1 delete
08:48:22 51.900550 107.657577 2 672.79998779297 1.0499999523163 187.46520996094 68 1 delete
08:48:20 51.900575 107.657575 2 672.70001220703 1.1799999475479 185.82824707031 68 1 delete
08:48:17 51.900649 107.657578 2 672.90002441406 3.7799999713898 186.50939941406 68 1 delete
08:48:14 51.900749 107.657594 1.5 672.70001220703 2.4299998283386 176.42395019531 68 1 delete
08:48:10 51.900842 107.657589 1.5 673.40002441406 2.7000000476837 176.22619628906 68 1 delete
08:48:09 51.900867 107.657589 1.5 673.40002441406 2.5599999427795 172.05688476562 68 1 delete
08:48:06 51.900950 107.657563 2 675.29998779297 2.6199998855591 170.80444335938 68 1 delete
08:48:02 51.901058 107.657530 2 676.20001220703 2.7400000095367 174.08386230469 68 1 delete
08:47:59 51.901150 107.657519 2 675.20001220703 3.0699999332428 170.51879882812 68 1 delete
08:47:58 51.901179 107.657511 2 674.79998779297 3.4099998474121 172.31506347656 68 1 delete
08:47:56 51.901250 107.657488 2 674.90002441406 3.5299999713898 175.50659179688 68 1 delete
08:47:53 51.901364 107.657458 2 676.40002441406 3.4199998378754 170.35400390625 68 1 delete
08:47:50 51.901472 107.657433 2 677.20001220703 3.3799998760223 177.96203613281 68 1 delete
08:47:47 51.901592 107.657409 2 678.79998779297 3.5599999427795 177.64892578125 68 1 delete
08:47:44 51.901699 107.657384 2 679.29998779297 3 169.83215332031 68 1 delete
08:47:41 51.901811 107.657340 2 680.79998779297 3.3499999046326 167.61840820312 68 1 delete
08:47:38 51.901921 107.657294 2 681.90002441406 3.1699998378754 171.49108886719 68 1 delete
08:47:36 51.901995 107.657283 2 681.59997558594 3.25 170.09582519531 68 1 delete
08:47:35 51.902034 107.657268 2.5 682 3.4499998092651 170.97473144531 68 1 delete
08:47:32 51.902142 107.657245 2 682.09997558594 3.8699998855591 173.52905273438 68 1 delete
08:47:29 51.902264 107.657208 2 681.90002441406 3.8199999332428 169.48059082031 68 1 delete
08:47:26 51.902379 107.657160 2 681.70001220703 3.1699998378754 170.60668945312 68 1 delete
08:47:25 51.902413 107.657150 2 681.90002441406 2.7699999809265 168.36547851562 68 1 delete
08:47:22 51.902478 107.657130 2 681.70001220703 1.7799999713898 159.71374511719 68 1 delete
08:47:15 51.902510 107.656994 2 682.59997558594 1.2599999904633 31.871337890625 68 1 delete
08:47:14 51.902501 107.656987 2.5 682.59997558594 1.289999961853 31.865844726562 68 1 delete
08:47:08 51.902451 107.656841 2 682.5 1.3199999332428 64.758911132812 68 1 delete
08:47:04 51.902437 107.656731 1.5 683.5 1.3999999761581 63.220825195312 68 1 delete
08:47:01 51.902436 107.656673 1.5 684.29998779297 0.5799999833107 77.838134765625 68 1 delete
08:46:54 51.902446 107.656632 2 684.90002441406 0 0 68 1 delete